createdAt,value
2016-10-01T00:00:17.137Z,1009.19
2016-10-01T00:01:17.089Z,1009.2
2016-10-01T00:02:17.048Z,1009.18
2016-10-01T00:03:16.989Z,1009.17
2016-10-01T00:04:16.941Z,1009.18
2016-10-01T00:05:16.898Z,1009.15
2016-10-01T00:06:16.848Z,1009.14
2016-10-01T00:07:16.802Z,1009.15
2016-10-01T00:08:16.759Z,1009.1
2016-10-01T00:09:16.706Z,1009.08
2016-10-01T00:10:16.657Z,1009.05
2016-10-01T00:11:16.811Z,1009.03
2016-10-01T00:12:16.563Z,1009.03
2016-10-01T00:13:16.503Z,1008.99
2016-10-01T00:14:16.463Z,1008.94
2016-10-01T00:15:16.412Z,1008.92
2016-10-01T00:16:16.365Z,1008.96
2016-10-01T00:17:16.514Z,1008.95
2016-10-01T00:18:16.270Z,1008.92
2016-10-01T00:19:16.228Z,1008.96
2016-10-01T00:20:16.166Z,1008.97
2016-10-01T00:21:16.114Z,1008.98
2016-10-01T00:22:16.074Z,1009.03
2016-10-01T00:23:16.225Z,1009
2016-10-01T00:24:15.970Z,1009.06
2016-10-01T00:25:16.130Z,1008.95
2016-10-01T00:26:15.875Z,1008.97
2016-10-01T00:27:15.829Z,1008.92
2016-10-01T00:28:15.781Z,1008.94
2016-10-01T00:29:15.726Z,1008.93
2016-10-01T00:30:15.882Z,1008.91
2016-10-01T00:31:15.633Z,1008.91
2016-10-01T00:32:15.580Z,1008.94
2016-10-01T00:33:15.941Z,1008.88
2016-10-01T00:34:15.489Z,1008.9
2016-10-01T00:35:15.439Z,1008.92
2016-10-01T00:36:15.599Z,1008.89
2016-10-01T00:37:15.349Z,1008.89
2016-10-01T00:38:15.289Z,1008.89
2016-10-01T00:39:15.244Z,1008.88
2016-10-01T00:40:15.246Z,1008.89
2016-10-01T00:41:15.150Z,1008.86
2016-10-01T00:42:15.095Z,1008.9
2016-10-01T00:43:15.057Z,1008.87
2016-10-01T00:44:15.205Z,1008.82
2016-10-01T00:45:14.962Z,1008.78
2016-10-01T00:46:14.901Z,1008.8
2016-10-01T00:47:14.853Z,1008.75
2016-10-01T00:48:14.804Z,1008.72
2016-10-01T00:49:14.755Z,1008.73
2016-10-01T00:50:14.707Z,1008.74
2016-10-01T00:51:14.659Z,1008.72
2016-10-01T00:52:14.614Z,1008.76
2016-10-01T00:53:14.563Z,1008.75
2016-10-01T00:54:14.511Z,1008.79
2016-10-01T00:55:14.469Z,1008.79
2016-10-01T00:56:14.413Z,1008.77
2016-10-01T00:57:14.366Z,1008.76
2016-10-01T00:58:14.367Z,1008.74
2016-10-01T00:59:14.267Z,1008.7
2016-10-01T01:00:14.219Z,1008.68
2016-10-01T01:01:14.172Z,1008.67
2016-10-01T01:02:14.325Z,1008.66
2016-10-01T01:03:14.069Z,1008.68
2016-10-01T01:04:14.027Z,1008.75
2016-10-01T01:05:13.972Z,1008.74
2016-10-01T01:06:13.922Z,1008.79
2016-10-01T01:07:13.885Z,1008.86
2016-10-01T01:08:13.827Z,1008.86
2016-10-01T01:09:13.777Z,1008.89
2016-10-01T01:10:13.730Z,1008.82
2016-10-01T01:11:13.684Z,1008.81
2016-10-01T01:12:13.632Z,1008.8
2016-10-01T01:13:13.785Z,1008.77
2016-10-01T01:14:13.538Z,1008.69
2016-10-01T01:15:13.484Z,1008.65
2016-10-01T01:16:13.432Z,1008.59
2016-10-01T01:17:13.396Z,1008.54
2016-10-01T01:18:13.344Z,1008.51
2016-10-01T01:19:13.294Z,1008.45
2016-10-01T01:20:13.242Z,1008.38
2016-10-01T01:21:13.447Z,1008.35
2016-10-01T01:22:13.154Z,1008.34
2016-10-01T01:23:13.100Z,1008.35
2016-10-01T01:24:13.046Z,1008.31
2016-10-01T01:25:12.994Z,1008.31
2016-10-01T01:26:12.952Z,1008.31
2016-10-01T01:27:12.904Z,1008.35
2016-10-01T01:28:12.849Z,1008.37
2016-10-01T01:29:12.800Z,1008.39
2016-10-01T01:30:12.758Z,1008.34
2016-10-01T01:31:12.703Z,1008.33
2016-10-01T01:32:12.670Z,1008.29
2016-10-01T01:33:12.609Z,1008.26
2016-10-01T01:34:12.561Z,1008.22
2016-10-01T01:35:12.509Z,1008.2
2016-10-01T01:36:12.458Z,1008.17
2016-10-01T01:37:12.409Z,1008.13
2016-10-01T01:38:12.361Z,1008.2
2016-10-01T01:39:12.314Z,1008.16
2016-10-01T01:40:12.266Z,1008.09
2016-10-01T01:41:12.214Z,1008.11
2016-10-01T01:42:12.177Z,1008.08
2016-10-01T01:43:12.114Z,1008.09
2016-10-01T01:44:12.063Z,1008.12
2016-10-01T01:45:12.225Z,1008.12
2016-10-01T01:46:11.969Z,1008.1
2016-10-01T01:47:11.922Z,1008.1
2016-10-01T01:48:11.875Z,1008.07
2016-10-01T01:49:11.824Z,1008.04
2016-10-01T01:50:11.774Z,1008.06
2016-10-01T01:51:11.731Z,1008.07
2016-10-01T01:52:11.683Z,1008.04
2016-10-01T01:53:11.622Z,1008.04
2016-10-01T01:54:11.579Z,1007.99
2016-10-01T01:55:11.532Z,1007.98
2016-10-01T01:56:11.482Z,1008
2016-10-01T01:57:11.434Z,1008.01
2016-10-01T01:58:11.386Z,1008.04
2016-10-01T01:59:11.331Z,1008.05
2016-10-01T02:00:11.287Z,1008.03
2016-10-01T02:01:11.232Z,1008
2016-10-01T02:02:11.192Z,1008.06
2016-10-01T02:03:11.137Z,1007.99
2016-10-01T02:04:11.089Z,1007.99
2016-10-01T02:05:11.041Z,1007.97
2016-10-01T02:06:10.988Z,1007.96
2016-10-01T02:07:10.945Z,1007.89
2016-10-01T02:08:10.892Z,1007.89
2016-10-01T02:09:10.845Z,1007.85
2016-10-01T02:10:10.789Z,1007.82
2016-10-01T02:11:10.744Z,1007.86
2016-10-01T02:12:10.705Z,1007.86
2016-10-01T02:13:10.645Z,1007.92
2016-10-01T02:14:10.597Z,1007.92
2016-10-01T02:15:10.550Z,1007.94
2016-10-01T02:16:10.506Z,1007.96
2016-10-01T02:17:10.452Z,1007.99
2016-10-01T02:18:10.405Z,1007.98
2016-10-01T02:19:10.355Z,1007.96
2016-10-01T02:20:10.318Z,1007.93
2016-10-01T02:21:10.257Z,1007.89
2016-10-01T02:22:10.203Z,1007.87
2016-10-01T02:23:10.158Z,1007.83
2016-10-01T02:24:10.111Z,1007.83
2016-10-01T02:25:10.063Z,1007.76
2016-10-01T02:26:10.010Z,1007.67
2016-10-01T02:27:09.968Z,1007.66
2016-10-01T02:28:10.115Z,1007.64
2016-10-01T02:29:09.865Z,1007.66
2016-10-01T02:30:09.819Z,1007.69
2016-10-01T02:31:09.765Z,1007.72
2016-10-01T02:32:09.713Z,1007.73
2016-10-01T02:33:09.667Z,1007.72
2016-10-01T02:34:09.621Z,1007.71
2016-10-01T02:35:09.568Z,1007.68
2016-10-01T02:36:09.523Z,1007.69
2016-10-01T02:37:09.471Z,1007.68
2016-10-01T02:38:09.626Z,1007.65
2016-10-01T02:39:09.370Z,1007.61
2016-10-01T02:40:09.320Z,1007.6
2016-10-01T02:41:09.271Z,1007.53
2016-10-01T02:42:09.228Z,1007.46
2016-10-01T02:43:09.175Z,1007.5
2016-10-01T02:44:09.126Z,1007.48
2016-10-01T02:45:09.078Z,1007.42
2016-10-01T02:46:09.228Z,1007.41
2016-10-01T02:47:08.982Z,1007.38
2016-10-01T02:48:08.933Z,1007.35
2016-10-01T02:49:08.884Z,1007.26
2016-10-01T02:50:08.836Z,1007.17
2016-10-01T02:51:08.781Z,1007.14
2016-10-01T02:52:08.735Z,1007.12
2016-10-01T02:53:08.686Z,1007.19
2016-10-01T02:54:08.633Z,1007.17
2016-10-01T02:55:08.581Z,1007.22
2016-10-01T02:56:08.542Z,1007.24
2016-10-01T02:57:08.491Z,1007.33
2016-10-01T02:58:08.441Z,1007.31
2016-10-01T02:59:08.387Z,1007.3
2016-10-01T03:00:08.343Z,1007.3
2016-10-01T03:01:08.292Z,1007.3
2016-10-01T03:02:08.236Z,1007.31
2016-10-01T03:03:08.190Z,1007.35
2016-10-01T03:04:08.142Z,1007.35
2016-10-01T03:05:08.093Z,1007.32
2016-10-01T03:06:08.243Z,1007.29
2016-10-01T03:07:08.001Z,1007.24
2016-10-01T03:08:07.952Z,1007.19
2016-10-01T03:09:07.894Z,1007.17
2016-10-01T03:10:07.849Z,1007.16
2016-10-01T03:11:07.802Z,1007.2
2016-10-01T03:12:07.758Z,1007.2
2016-10-01T03:13:07.701Z,1007.23
2016-10-01T03:14:07.654Z,1007.23
2016-10-01T03:15:07.607Z,1007.27
2016-10-01T03:16:07.554Z,1007.21
2016-10-01T03:17:07.502Z,1007.17
2016-10-01T03:18:07.450Z,1007.17
2016-10-01T03:19:07.408Z,1007.15
2016-10-01T03:20:07.358Z,1007.17
2016-10-01T03:21:07.313Z,1007.16
2016-10-01T03:22:07.259Z,1007.16
2016-10-01T03:23:07.218Z,1007.12
2016-10-01T03:24:07.161Z,1007.1
2016-10-01T03:25:07.110Z,1007.06
2016-10-01T03:26:07.074Z,1007.02
2016-10-01T03:27:07.012Z,1006.99
2016-10-01T03:28:07.025Z,1007.01
2016-10-01T03:29:07.119Z,1007
2016-10-01T03:30:06.873Z,1006.98
2016-10-01T03:31:06.819Z,1007.05
2016-10-01T03:32:06.771Z,1007.04
2016-10-01T03:33:06.716Z,1007.04
2016-10-01T03:34:06.673Z,1007.04
2016-10-01T03:35:06.616Z,1007.05
2016-10-01T03:36:06.567Z,1007.05
2016-10-01T03:37:06.522Z,1007.04
2016-10-01T03:38:06.479Z,1007
2016-10-01T03:39:06.425Z,1007
2016-10-01T03:40:06.381Z,1007
2016-10-01T03:41:06.332Z,1006.96
2016-10-01T03:42:06.275Z,1006.94
2016-10-01T03:43:06.245Z,1006.95
2016-10-01T03:44:06.180Z,1006.92
2016-10-01T03:45:06.128Z,1006.96
2016-10-01T03:46:06.089Z,1006.97
2016-10-01T03:47:06.030Z,1006.97
2016-10-01T03:48:05.983Z,1006.95
2016-10-01T03:49:05.931Z,1006.93
2016-10-01T03:50:05.884Z,1006.91
2016-10-01T03:51:05.837Z,1006.92
2016-10-01T03:52:05.794Z,1006.89
2016-10-01T03:53:05.744Z,1006.9
2016-10-01T03:54:05.691Z,1006.9
2016-10-01T03:55:05.675Z,1006.86
2016-10-01T03:56:05.596Z,1006.85
2016-10-01T03:57:05.550Z,1006.84
2016-10-01T03:58:05.496Z,1006.85
2016-10-01T03:59:05.445Z,1006.83
2016-10-01T04:00:05.397Z,1006.79
2016-10-01T04:01:05.349Z,1006.78
2016-10-01T04:02:05.299Z,1006.78
2016-10-01T04:03:05.254Z,1006.75
2016-10-01T04:04:05.204Z,1006.71
2016-10-01T04:05:05.149Z,1006.71
2016-10-01T04:06:05.101Z,1006.64
2016-10-01T04:07:05.052Z,1006.66
2016-10-01T04:08:04.999Z,1006.65
2016-10-01T04:09:04.954Z,1006.64
2016-10-01T04:10:04.912Z,1006.6
2016-10-01T04:11:04.854Z,1006.65
2016-10-01T04:12:04.808Z,1006.68
2016-10-01T04:13:04.962Z,1006.64
2016-10-01T04:14:04.706Z,1006.65
2016-10-01T04:15:04.681Z,1006.65
2016-10-01T04:16:04.610Z,1006.62
2016-10-01T04:18:04.514Z,1006.6
2016-10-01T04:19:04.670Z,1006.59
2016-10-01T04:20:04.417Z,1006.66
2016-10-01T04:21:04.565Z,1006.65
2016-10-01T04:22:04.515Z,1006.67
2016-10-01T04:23:04.273Z,1006.71
2016-10-01T04:24:04.215Z,1006.73
2016-10-01T04:25:04.171Z,1006.69
2016-10-01T04:26:04.121Z,1006.67
2016-10-01T04:27:04.082Z,1006.67
2016-10-01T04:28:04.026Z,1006.68
2016-10-01T04:29:03.972Z,1006.66
2016-10-01T04:30:03.921Z,1006.67
2016-10-01T04:31:03.873Z,1006.67
2016-10-01T04:32:03.826Z,1006.73
2016-10-01T04:33:03.784Z,1006.72
2016-10-01T04:34:03.730Z,1006.69
2016-10-01T04:35:03.683Z,1006.7
2016-10-01T04:36:03.634Z,1006.65
2016-10-01T04:37:03.587Z,1006.63
2016-10-01T04:38:03.531Z,1006.64
2016-10-01T04:39:03.483Z,1006.63
2016-10-01T04:40:03.430Z,1006.65
2016-10-01T04:41:03.389Z,1006.65
2016-10-01T04:42:03.340Z,1006.74
2016-10-01T04:43:03.288Z,1006.76
2016-10-01T04:44:03.287Z,1006.73
2016-10-01T04:45:03.187Z,1006.75
2016-10-01T04:46:03.137Z,1006.72
2016-10-01T04:47:03.086Z,1006.73
2016-10-01T04:48:03.039Z,1006.73
2016-10-01T04:49:02.997Z,1006.74
2016-10-01T04:50:02.942Z,1006.72
2016-10-01T04:51:02.899Z,1006.71
2016-10-01T04:52:02.849Z,1006.71
2016-10-01T04:53:02.796Z,1006.71
2016-10-01T04:54:02.743Z,1006.71
2016-10-01T04:55:02.698Z,1006.7
2016-10-01T04:56:02.656Z,1006.69
2016-10-01T04:57:02.604Z,1006.69
2016-10-01T04:58:02.553Z,1006.67
2016-10-01T04:59:02.500Z,1006.68
2016-10-01T05:00:02.453Z,1006.69
2016-10-01T05:01:02.406Z,1006.7
2016-10-01T05:02:02.355Z,1006.64
2016-10-01T05:03:02.305Z,1006.66
2016-10-01T05:04:02.256Z,1006.63
2016-10-01T05:05:02.206Z,1006.56
2016-10-01T05:06:02.359Z,1006.54
2016-10-01T05:07:02.106Z,1006.55
2016-10-01T05:08:02.061Z,1006.51
2016-10-01T05:09:02.009Z,1006.5
2016-10-01T05:10:01.962Z,1006.55
2016-10-01T05:11:01.909Z,1006.56
2016-10-01T05:12:01.867Z,1006.63
2016-10-01T05:13:01.819Z,1006.63
2016-10-01T05:14:01.768Z,1006.67
2016-10-01T05:15:01.921Z,1006.72
2016-10-01T05:16:01.867Z,1006.7
2016-10-01T05:17:01.617Z,1006.71
2016-10-01T05:18:01.578Z,1006.72
2016-10-01T05:19:01.715Z,1006.71
2016-10-01T05:20:01.469Z,1006.69
2016-10-01T05:21:01.418Z,1006.71
2016-10-01T05:22:01.598Z,1006.69
2016-10-01T05:23:01.327Z,1006.69
2016-10-01T05:24:01.270Z,1006.71
2016-10-01T05:25:01.424Z,1006.72
2016-10-01T05:26:01.170Z,1006.72
2016-10-01T05:27:01.121Z,1006.7
2016-10-01T05:28:01.281Z,1006.69
2016-10-01T05:29:01.031Z,1006.66
2016-10-01T05:30:00.985Z,1006.66
2016-10-01T05:31:00.934Z,1006.59
2016-10-01T05:32:00.881Z,1006.64
2016-10-01T05:33:00.827Z,1006.61
2016-10-01T05:34:00.782Z,1006.6
2016-10-01T05:35:00.735Z,1006.62
2016-10-01T05:36:00.688Z,1006.57
2016-10-01T05:37:00.637Z,1006.53
2016-10-01T05:38:00.581Z,1006.53
2016-10-01T05:39:00.533Z,1006.57
2016-10-01T05:40:00.491Z,1006.56
2016-10-01T05:41:00.438Z,1006.57
2016-10-01T05:42:00.394Z,1006.6
2016-10-01T05:43:00.338Z,1006.57
2016-10-01T05:44:00.288Z,1006.6
2016-10-01T05:45:00.248Z,1006.56
2016-10-01T05:46:00.206Z,1006.59
2016-10-01T05:47:00.139Z,1006.57
2016-10-01T05:48:00.101Z,1006.57
2016-10-01T05:49:00.047Z,1006.62
2016-10-01T05:50:00.212Z,1006.68
2016-10-01T05:50:59.949Z,1006.64
2016-10-01T05:51:59.897Z,1006.64
2016-10-01T05:52:59.849Z,1006.58
2016-10-01T05:53:59.997Z,1006.59
2016-10-01T05:54:59.756Z,1006.59
2016-10-01T05:55:59.900Z,1006.57
2016-10-01T05:56:59.652Z,1006.57
2016-10-01T05:57:59.601Z,1006.56
2016-10-01T05:58:59.767Z,1006.57
2016-10-01T05:59:59.501Z,1006.57
2016-10-01T06:00:59.449Z,1006.57
2016-10-01T06:01:59.419Z,1006.55
2016-10-01T06:02:59.366Z,1006.54
2016-10-01T06:03:59.306Z,1006.53
2016-10-01T06:04:59.263Z,1006.5
2016-10-01T06:05:59.402Z,1006.47
2016-10-01T06:06:59.357Z,1006.48
2016-10-01T06:07:59.104Z,1006.47
2016-10-01T06:08:59.054Z,1006.47
2016-10-01T06:09:59.011Z,1006.49
2016-10-01T06:10:58.957Z,1006.52
2016-10-01T06:11:59.112Z,1006.56
2016-10-01T06:12:58.861Z,1006.59
2016-10-01T06:13:58.813Z,1006.64
2016-10-01T06:14:58.761Z,1006.67
2016-10-01T06:15:58.706Z,1006.69
2016-10-01T06:16:58.662Z,1006.69
2016-10-01T06:17:58.610Z,1006.67
2016-10-01T06:18:58.766Z,1006.72
2016-10-01T06:19:58.514Z,1006.75
2016-10-01T06:20:58.463Z,1006.71
2016-10-01T06:21:58.417Z,1006.7
2016-10-01T06:22:58.366Z,1006.69
2016-10-01T06:23:58.316Z,1006.65
2016-10-01T06:24:58.265Z,1006.62
2016-10-01T06:25:58.217Z,1006.61
2016-10-01T06:26:58.169Z,1006.63
2016-10-01T06:27:58.121Z,1006.6
2016-10-01T06:28:58.074Z,1006.59
2016-10-01T06:29:58.029Z,1006.61
2016-10-01T06:30:57.970Z,1006.57
2016-10-01T06:31:57.918Z,1006.53
2016-10-01T06:32:57.869Z,1006.53
2016-10-01T06:33:57.829Z,1006.55
2016-10-01T06:34:57.773Z,1006.48
2016-10-01T06:35:57.721Z,1006.46
2016-10-01T06:36:57.870Z,1006.48
2016-10-01T06:37:57.627Z,1006.48
2016-10-01T06:38:57.580Z,1006.46
2016-10-01T06:39:57.533Z,1006.46
2016-10-01T06:40:57.478Z,1006.46
2016-10-01T06:41:57.429Z,1006.41
2016-10-01T06:42:57.377Z,1006.4
2016-10-01T06:43:57.335Z,1006.4
2016-10-01T06:44:57.284Z,1006.37
2016-10-01T06:45:57.434Z,1006.38
2016-10-01T06:46:57.185Z,1006.39
2016-10-01T06:47:57.131Z,1006.37
2016-10-01T06:48:57.088Z,1006.38
2016-10-01T06:49:57.036Z,1006.38
2016-10-01T06:50:56.984Z,1006.37
2016-10-01T06:51:57.136Z,1006.36
2016-10-01T06:52:57.089Z,1006.38
2016-10-01T06:53:56.910Z,1006.34
2016-10-01T06:54:56.781Z,1006.34
2016-10-01T06:55:56.739Z,1006.31
2016-10-01T06:56:56.889Z,1006.37
2016-10-01T06:57:56.636Z,1006.39
2016-10-01T06:58:56.789Z,1006.39
2016-10-01T06:59:56.540Z,1006.41
2016-10-01T07:00:56.489Z,1006.46
2016-10-01T07:01:56.633Z,1006.43
2016-10-01T07:02:56.389Z,1006.39
2016-10-01T07:03:56.542Z,1006.35
2016-10-01T07:04:56.290Z,1006.33
2016-10-01T07:05:56.238Z,1006.26
2016-10-01T07:06:56.394Z,1006.25
2016-10-01T07:07:56.342Z,1006.2
2016-10-01T07:08:56.091Z,1006.2
2016-10-01T07:09:56.045Z,1006.19
2016-10-01T07:10:55.996Z,1006.15
2016-10-01T07:11:55.943Z,1006.16
2016-10-01T07:12:55.917Z,1006.17
2016-10-01T07:13:55.846Z,1006.18
2016-10-01T07:14:55.805Z,1006.22
2016-10-01T07:15:55.750Z,1006.21
2016-10-01T07:16:55.703Z,1006.18
2016-10-01T07:17:55.651Z,1006.2
2016-10-01T07:18:55.595Z,1006.17
2016-10-01T07:19:55.748Z,1006.18
2016-10-01T07:20:55.502Z,1006.18
2016-10-01T07:21:55.649Z,1006.15
2016-10-01T07:22:55.409Z,1006.18
2016-10-01T07:23:55.560Z,1006.18
2016-10-01T07:24:55.300Z,1006.18
2016-10-01T07:25:55.327Z,1006.24
2016-10-01T07:26:55.409Z,1006.27
2016-10-01T07:27:55.153Z,1006.28
2016-10-01T07:28:55.104Z,1006.25
2016-10-01T07:29:55.065Z,1006.24
2016-10-01T07:30:55.210Z,1006.19
2016-10-01T07:31:54.955Z,1006.19
2016-10-01T07:32:54.906Z,1006.12
2016-10-01T07:33:54.857Z,1006.12
2016-10-01T07:34:54.808Z,1006.11
2016-10-01T07:35:54.758Z,1006.07
2016-10-01T07:36:54.708Z,1006.07
2016-10-01T07:37:54.865Z,1006.09
2016-10-01T07:38:55.013Z,1006.09
2016-10-01T07:39:54.565Z,1006.09
2016-10-01T07:40:54.512Z,1006.11
2016-10-01T07:41:54.466Z,1006.09
2016-10-01T07:42:54.412Z,1006.11
2016-10-01T07:43:54.574Z,1006.1
2016-10-01T07:44:54.525Z,1006.07
2016-10-01T07:45:54.275Z,1006.04
2016-10-01T07:46:54.220Z,1006.02
2016-10-01T07:47:54.173Z,1005.98
2016-10-01T07:48:54.120Z,1005.99
2016-10-01T07:49:54.267Z,1005.98
2016-10-01T07:50:54.017Z,1005.98
2016-10-01T07:52:53.921Z,1006.01
2016-10-01T07:53:53.875Z,1006
2016-10-01T07:54:53.819Z,1005.99
2016-10-01T07:55:53.814Z,1006.03
2016-10-01T07:56:53.719Z,1006.03
2016-10-01T07:57:53.676Z,1006.06
2016-10-01T07:58:53.623Z,1006.03
2016-10-01T07:59:53.573Z,1006.07
2016-10-01T08:00:53.526Z,1006.07
2016-10-01T08:01:53.673Z,1006.09
2016-10-01T08:02:53.430Z,1006.12
2016-10-01T08:03:53.377Z,1006.16
2016-10-01T08:04:53.323Z,1006.12
2016-10-01T08:05:53.277Z,1006.13
2016-10-01T08:06:53.229Z,1006.09
2016-10-01T08:07:53.186Z,1006.09
2016-10-01T08:08:53.132Z,1006.05
2016-10-01T08:09:53.089Z,1006.06
2016-10-01T08:10:53.237Z,1006.07
2016-10-01T08:11:52.985Z,1006.09
2016-10-01T08:12:52.979Z,1006.12
2016-10-01T08:13:52.882Z,1006.13
2016-10-01T08:14:52.837Z,1006.1
2016-10-01T08:15:52.789Z,1006.08
2016-10-01T08:16:52.948Z,1006.09
2016-10-01T08:17:52.692Z,1006.07
2016-10-01T08:18:52.843Z,1006.09
2016-10-01T08:19:52.596Z,1006.13
2016-10-01T08:20:52.544Z,1006.14
2016-10-01T08:21:52.492Z,1006.17
2016-10-01T08:22:52.453Z,1006.16
2016-10-01T08:23:52.396Z,1006.19
2016-10-01T08:24:52.539Z,1006.2
2016-10-01T08:25:52.291Z,1006.18
2016-10-01T08:26:52.247Z,1006.18
2016-10-01T08:27:52.191Z,1006.19
2016-10-01T08:28:52.144Z,1006.17
2016-10-01T08:29:52.295Z,1006.12
2016-10-01T08:30:52.040Z,1006.1
2016-10-01T08:31:52.005Z,1006.06
2016-10-01T08:32:51.959Z,1006.07
2016-10-01T08:33:51.898Z,1006
2016-10-01T08:34:51.849Z,1006.03
2016-10-01T08:35:51.798Z,1005.96
2016-10-01T08:36:51.749Z,1005.94
2016-10-01T08:37:51.701Z,1005.99
2016-10-01T08:38:51.650Z,1006
2016-10-01T08:39:51.609Z,1006.01
2016-10-01T08:40:51.550Z,1006.06
2016-10-01T08:41:51.506Z,1006.11
2016-10-01T08:42:51.650Z,1006.15
2016-10-01T08:43:51.403Z,1006.19
2016-10-01T08:44:51.414Z,1006.21
2016-10-01T08:45:51.307Z,1006.21
2016-10-01T08:46:51.328Z,1006.14
2016-10-01T08:47:51.215Z,1006.14
2016-10-01T08:48:51.162Z,1006.17
2016-10-01T08:49:51.107Z,1006.17
2016-10-01T08:50:51.064Z,1006.16
2016-10-01T08:51:51.013Z,1006.16
2016-10-01T08:52:50.964Z,1006.09
2016-10-01T08:53:50.916Z,1006.12
2016-10-01T08:54:50.865Z,1006.07
2016-10-01T08:55:50.817Z,1006.05
2016-10-01T08:56:50.772Z,1006.03
2016-10-01T08:57:50.914Z,1006.06
2016-10-01T08:58:50.671Z,1006.1
2016-10-01T08:59:50.623Z,1006.04
2016-10-01T09:00:50.594Z,1005.99
2016-10-01T09:01:50.530Z,1005.99
2016-10-01T09:02:50.478Z,1006.01
2016-10-01T09:03:50.628Z,1005.95
2016-10-01T09:04:50.376Z,1006.02
2016-10-01T09:05:50.367Z,1006
2016-10-01T09:06:50.276Z,1006
2016-10-01T09:07:50.232Z,1005.99
2016-10-01T09:08:50.180Z,1006.02
2016-10-01T09:09:50.129Z,1005.98
2016-10-01T09:10:50.076Z,1005.95
2016-10-01T09:11:50.037Z,1005.95
2016-10-01T09:12:49.987Z,1006
2016-10-01T09:13:49.937Z,1005.98
2016-10-01T09:14:49.895Z,1005.98
2016-10-01T09:15:49.836Z,1006.03
2016-10-01T09:16:49.835Z,1006
2016-10-01T09:17:50.146Z,1006
2016-10-01T09:18:49.696Z,1006.01
2016-10-01T09:19:49.642Z,1005.99
2016-10-01T09:20:49.594Z,1006.03
2016-10-01T09:21:49.550Z,1006.05
2016-10-01T09:22:49.495Z,1006.1
2016-10-01T09:23:49.454Z,1006.1
2016-10-01T09:24:49.413Z,1006.06
2016-10-01T09:25:49.347Z,1006.05
2016-10-01T09:26:49.304Z,1006.04
2016-10-01T09:27:49.252Z,1006.01
2016-10-01T09:28:49.210Z,1006.05
2016-10-01T09:29:49.166Z,1006.03
2016-10-01T09:30:49.115Z,1006.03
2016-10-01T09:31:49.064Z,1006.01
2016-10-01T09:32:49.006Z,1005.99
2016-10-01T09:33:48.968Z,1005.96
2016-10-01T09:34:48.912Z,1005.96
2016-10-01T09:35:48.861Z,1005.96
2016-10-01T09:36:48.818Z,1005.93
2016-10-01T09:37:48.769Z,1005.94
2016-10-01T09:38:48.714Z,1005.91
2016-10-01T09:39:48.667Z,1005.87
2016-10-01T09:40:48.625Z,1005.89
2016-10-01T09:41:48.571Z,1005.94
2016-10-01T09:42:48.522Z,1005.96
2016-10-01T09:43:48.481Z,1005.97
2016-10-01T09:44:48.426Z,1006.01
2016-10-01T09:45:48.387Z,1006.01
2016-10-01T09:46:48.331Z,1006.02
2016-10-01T09:47:48.474Z,1006.02
2016-10-01T09:48:48.228Z,1005.99
2016-10-01T09:49:48.183Z,1005.95
2016-10-01T09:50:48.139Z,1005.97
2016-10-01T09:51:48.085Z,1005.92
2016-10-01T09:52:48.039Z,1005.9
2016-10-01T09:53:47.987Z,1005.94
2016-10-01T09:54:47.947Z,1005.91
2016-10-01T09:55:47.892Z,1005.88
2016-10-01T09:56:48.043Z,1005.86
2016-10-01T09:57:47.799Z,1005.89
2016-10-01T09:58:47.751Z,1005.82
2016-10-01T09:59:47.701Z,1005.83
2016-10-01T10:00:47.647Z,1005.84
2016-10-01T10:01:47.601Z,1005.77
2016-10-01T10:02:47.759Z,1005.81
2016-10-01T10:03:47.507Z,1005.73
2016-10-01T10:04:47.457Z,1005.75
2016-10-01T10:05:47.412Z,1005.74
2016-10-01T10:06:47.368Z,1005.72
2016-10-01T10:07:47.370Z,1005.77
2016-10-01T10:08:47.262Z,1005.72
2016-10-01T10:09:47.219Z,1005.73
2016-10-01T10:10:47.171Z,1005.78
2016-10-01T10:11:47.125Z,1005.76
2016-10-01T10:12:47.070Z,1005.72
2016-10-01T10:13:47.021Z,1005.73
2016-10-01T10:14:46.977Z,1005.72
2016-10-01T10:15:46.935Z,1005.74
2016-10-01T10:16:46.877Z,1005.75
2016-10-01T10:17:47.029Z,1005.73
2016-10-01T10:18:46.783Z,1005.75
2016-10-01T10:19:46.743Z,1005.83
2016-10-01T10:20:46.693Z,1005.83
2016-10-01T10:21:46.638Z,1005.84
2016-10-01T10:22:46.592Z,1005.89
2016-10-01T10:23:46.544Z,1005.88
2016-10-01T10:24:46.491Z,1005.84
2016-10-01T10:25:46.452Z,1005.86
2016-10-01T10:26:46.395Z,1005.82
2016-10-01T10:27:46.350Z,1005.81
2016-10-01T10:28:46.304Z,1005.83
2016-10-01T10:29:46.259Z,1005.79
2016-10-01T10:30:46.205Z,1005.81
2016-10-01T10:31:46.150Z,1005.8
2016-10-01T10:32:46.108Z,1005.8
2016-10-01T10:33:46.058Z,1005.81
2016-10-01T10:34:46.005Z,1005.84
2016-10-01T10:35:46.162Z,1005.82
2016-10-01T10:36:45.908Z,1005.78
2016-10-01T10:37:46.267Z,1005.79
2016-10-01T10:38:45.815Z,1005.77
2016-10-01T10:39:45.971Z,1005.78
2016-10-01T10:40:45.723Z,1005.77
2016-10-01T10:41:45.736Z,1005.74
2016-10-01T10:42:45.626Z,1005.77
2016-10-01T10:43:45.580Z,1005.75
2016-10-01T10:44:45.529Z,1005.75
2016-10-01T10:45:45.481Z,1005.76
2016-10-01T10:46:45.437Z,1005.77
2016-10-01T10:47:45.387Z,1005.76
2016-10-01T10:48:45.341Z,1005.76
2016-10-01T10:49:45.291Z,1005.71
2016-10-01T10:50:45.241Z,1005.68
2016-10-01T10:51:45.605Z,1005.71
2016-10-01T10:52:45.343Z,1005.74
2016-10-01T10:53:45.099Z,1005.74
2016-10-01T10:54:45.050Z,1005.7
2016-10-01T10:55:44.997Z,1005.65
2016-10-01T10:56:45.155Z,1005.66
2016-10-01T10:57:44.903Z,1005.65
2016-10-01T10:58:44.858Z,1005.68
2016-10-01T10:59:44.813Z,1005.64
2016-10-01T11:00:44.769Z,1005.62
2016-10-01T11:01:44.715Z,1005.6
2016-10-01T11:02:44.672Z,1005.56
2016-10-01T11:03:44.616Z,1005.53
2016-10-01T11:04:44.571Z,1005.55
2016-10-01T11:05:44.529Z,1005.48
2016-10-01T11:06:44.670Z,1005.46
2016-10-01T11:07:44.431Z,1005.44
2016-10-01T11:08:44.591Z,1005.48
2016-10-01T11:09:44.328Z,1005.45
2016-10-01T11:10:44.299Z,1005.41
2016-10-01T11:11:44.238Z,1005.41
2016-10-01T11:12:44.196Z,1005.42
2016-10-01T11:13:44.141Z,1005.39
2016-10-01T11:14:44.306Z,1005.36
2016-10-01T11:15:44.050Z,1005.3
2016-10-01T11:16:43.998Z,1005.23
2016-10-01T11:17:43.963Z,1005.21
2016-10-01T11:18:43.912Z,1005.15
2016-10-01T11:19:43.857Z,1005.19
2016-10-01T11:20:43.806Z,1005.18
2016-10-01T11:21:43.963Z,1005.21
2016-10-01T11:22:43.919Z,1005.18
2016-10-01T11:23:43.666Z,1005.14
2016-10-01T11:24:43.616Z,1005.12
2016-10-01T11:25:43.570Z,1005.1
2016-10-01T11:26:43.529Z,1005.05
2016-10-01T11:27:43.674Z,1005.09
2016-10-01T11:28:43.439Z,1005.1
2016-10-01T11:29:43.381Z,1005.07
2016-10-01T11:30:43.334Z,1005.05
2016-10-01T11:31:43.492Z,1005.07
2016-10-01T11:32:43.443Z,1005.14
2016-10-01T11:33:43.194Z,1005.19
2016-10-01T11:34:43.152Z,1005.17
2016-10-01T11:35:43.094Z,1005.2
2016-10-01T11:36:43.051Z,1005.21
2016-10-01T11:37:43.008Z,1005.21
2016-10-01T11:38:43.159Z,1005.19
2016-10-01T11:39:42.911Z,1005.2
2016-10-01T11:40:42.862Z,1005.22
2016-10-01T11:41:42.825Z,1005.16
2016-10-01T11:42:42.771Z,1005.2
2016-10-01T11:43:42.745Z,1005.23
2016-10-01T11:44:42.878Z,1005.2
2016-10-01T11:45:42.625Z,1005.21
2016-10-01T11:46:42.783Z,1005.2
2016-10-01T11:47:42.549Z,1005.21
2016-10-01T11:48:42.487Z,1005.17
2016-10-01T11:49:42.433Z,1005.18
2016-10-01T11:50:42.393Z,1005.16
2016-10-01T11:51:42.347Z,1005.09
2016-10-01T11:52:42.294Z,1005.17
2016-10-01T11:53:42.239Z,1005.1
2016-10-01T11:54:42.395Z,1005.12
2016-10-01T11:55:42.148Z,1005.1
2016-10-01T11:56:42.109Z,1005.1
2016-10-01T11:57:42.087Z,1005.11
2016-10-01T11:58:42.094Z,1005.11
2016-10-01T11:59:42.044Z,1005.17
2016-10-01T12:00:42.117Z,1005.16
2016-10-01T12:01:42.027Z,1005.11
2016-10-01T12:02:42.007Z,1005.12
2016-10-01T12:03:41.777Z,1005.15
2016-10-01T12:04:41.729Z,1005.14
2016-10-01T12:05:41.687Z,1005.13
2016-10-01T12:06:41.635Z,1005.12
2016-10-01T12:07:41.602Z,1005.09
2016-10-01T12:08:41.534Z,1005.07
2016-10-01T12:09:41.488Z,1005.04
2016-10-01T12:10:41.645Z,1005.08